Duck Creek Village, Utah
Current Conditions -  °F | °C
As of 6:53 AM on Saturday 22 Nov 2014 (Local Time) from KCDC Reporting Station
Clear Clear  
Wind Chill: 27°   Ceiling: Unl
Heat Index: 34°   Visibility: 10mi
Dew Point: 22°   Wind: 8mph
Humidity: 61%   Direction: 150°SSE
Pressure: 30.07"   Gusts: NA
Location:  37.53°N, 112.67°W
Report Text: KCDC 221353Z AUTO 15007KT 10SM CLR 01/M06 A3007 RMK AO2 SLP175 T00111056
Loading
Personal Weather Stations






























Interactive Weather Map New forecast layout! Learn more

10-Day Weather Forecast

Advertisements
Track Severe Weather on mobile